Time;durP1;ratioP1;P1;durP2;ratioP2;P2;SDS_P1;SDS_P2;PMS_P1;PMS_P2;Temp;Humidity;BMP_temperature;BMP_pressure;BME280_temperature;BME280_humidity;BME280_pressure;Samples;Min_cycle;Max_cycle;Signal;HPM_P1;HPM_P2
2022/07/19 00:01:10;;;;;;;;;;;;;;;14.00;60.93;99481.59;1384161;84;80888;-71
2022/07/19 00:03:11;;;;;;;10.60;3.92;;;;;;;13.98;61.11;99479.03;1382689;84;20242;-71
2022/07/19 00:05:13;;;;;;;9.98;4.25;;;;;;;13.95;61.17;99473.91;1379795;84;82447;-72
2022/07/19 00:07:14;;;;;;;12.98;4.20;;;;;;;13.95;61.14;99474.75;1381624;82;21064;-71
2022/07/19 00:09:15;;;;;;;5.60;3.75;;;;;;;13.94;61.21;99470.86;1394506;83;21060;-73
2022/07/19 00:11:16;;;;;;;;;;;;;;;13.93;61.34;99470.02;1397183;82;80734;-71
2022/07/19 00:13:17;;;;;;;7.30;4.28;;;;;;;13.91;61.52;99461.77;1396752;82;20193;-71
2022/07/19 00:15:18;;;;;;;5.33;3.80;;;;;;;13.87;61.40;99466.36;1393282;83;82043;-71
2022/07/19 00:17:19;;;;;;;;;;;;;;;13.85;61.40;99458.98;1399085;82;21035;-71
2022/07/19 00:19:20;;;;;;;13.60;3.83;;;;;;;13.85;61.66;99458.13;1397960;83;20196;-72
2022/07/19 00:21:21;;;;;;;;;;;;;;;13.80;61.61;99451.73;1396331;82;81028;-71
2022/07/19 00:23:22;;;;;;;6.53;4.20;;;;;;;13.76;61.82;99450.19;1395800;82;20713;-71
2022/07/19 00:25:23;;;;;;;;;;;;;;;13.72;61.71;99460.11;1398575;81;81627;-71
2022/07/19 00:27:24;;;;;;;5.83;4.12;;;;;;;13.71;61.94;99463.69;1396664;83;20143;-71
2022/07/19 00:29:25;;;;;;;23.60;4.15;;;;;;;13.69;61.95;99464.23;1395053;84;22222;-72
2022/07/19 00:31:26;;;;;;;16.32;4.80;;;;;;;13.71;62.05;99457.07;1393737;82;81061;-71
2022/07/19 00:33:27;;;;;;;6.85;4.10;;;;;;;13.73;62.13;99459.16;1396455;82;21099;-71
2022/07/19 00:35:28;;;;;;;;;;;;;;;13.73;62.15;99459.16;1391929;82;80764;-71
2022/07/19 00:37:29;;;;;;;6.83;3.92;;;;;;;13.70;62.37;99460.65;1395368;82;20327;-71
2022/07/19 00:39:30;;;;;;;;;;;;;;;13.67;62.30;99459.50;1400842;82;21084;-71
2022/07/19 00:41:31;;;;;;;13.75;3.98;;;;;;;13.65;62.54;99463.16;1398151;83;66981;-71
2022/07/19 00:43:32;;;;;;;;;;;;;;;13.62;62.47;99466.82;1397730;82;21040;-71
2022/07/19 00:45:33;;;;;;;7.12;4.17;;;;;;;13.61;62.67;99465.98;1395822;83;67170;-71
2022/07/19 00:47:35;;;;;;;6.42;3.87;;;;;;;13.61;62.53;99471.75;1392396;83;21092;-72
2022/07/19 00:49:36;;;;;;;8.55;4.12;;;;;;;13.59;62.52;99469.64;1378210;81;21625;-71
2022/07/19 00:51:42;;;;;;;10.05;4.47;;;;;;;13.59;62.48;99465.19;1393957;82;80772;-72
2022/07/19 00:53:44;;;;;;;6.50;5.15;;;;;;;13.60;62.48;99470.03;1394140;82;21028;-71
2022/07/19 00:55:46;;;;;;;10.38;4.00;;;;;;;13.61;62.54;99470.43;1394681;82;80754;-71
2022/07/19 00:57:47;;;;;;;8.80;4.47;;;;;;;13.62;62.55;99468.14;1398634;83;21044;-71
2022/07/19 00:59:51;;;;;;;8.50;4.50;;;;;;;13.65;62.58;99469.78;1392863;83;21531;-71
2022/07/19 01:01:53;;;;;;;14.03;5.55;;;;;;;13.66;62.60;99474.99;1393740;83;81691;-71
2022/07/19 01:03:55;;;;;;;12.58;4.20;;;;;;;13.67;62.71;99467.44;1396446;82;21055;-71
2022/07/19 01:05:56;;;;;;;11.00;4.10;;;;;;;13.67;62.71;99466.59;1392982;80;81670;-71
2022/07/19 01:07:57;;;;;;;6.97;4.33;;;;;;;13.65;62.67;99465.81;1393438;82;21658;-71
2022/07/19 01:09:58;;;;;;;;;;;;;;;13.58;62.76;99467.47;1394218;83;82112;-71
2022/07/19 01:11:59;;;;;;;6.30;3.95;;;;;;;13.53;63.00;99473.95;1397260;83;20133;-72
2022/07/19 01:14:00;;;;;;;5.47;4.22;;;;;;;13.52;63.01;99474.87;1368463;84;21048;-71
2022/07/19 01:16:01;;;;;;;;;;;;;;;13.50;63.02;99470.11;1376064;83;80681;-71
2022/07/19 01:18:02;;;;;;;4.58;4.17;;;;;;;13.48;63.20;99470.67;1372154;84;20182;-72
2022/07/19 01:20:04;;;;;;;;;;;;;;;13.45;63.22;99471.20;1375670;84;80838;-72
2022/07/19 01:22:05;;;;;;;7.25;3.72;;;;;;;13.44;63.47;99465.55;1375956;83;20276;-71
2022/07/19 01:24:06;;;;;;;14.10;4.45;;;;;;;13.43;63.39;99470.45;1373831;84;22501;-72
2022/07/19 01:26:07;;;;;;;;;;;;;;;13.45;63.44;99469.89;1373923;84;81481;-70
2022/07/19 01:28:08;;;;;;;13.95;4.55;;;;;;;13.44;63.58;99466.87;1372432;83;20854;-71
2022/07/19 01:30:13;;;;;;;;;;;;;;;13.41;63.51;99465.69;1353646;84;82116;-72
2022/07/19 01:32:14;;;;;;;10.70;4.03;;;;;;;13.40;63.78;99458.70;1373256;84;20180;-73
2022/07/19 01:34:15;;;;;;;6.03;4.03;;;;;;;13.39;63.66;99463.60;1375682;83;21076;-71
2022/07/19 01:36:16;;;;;;;9.40;4.72;;;;;;;13.39;63.74;99463.60;1375455;84;80713;-70
2022/07/19 01:38:17;;;;;;;;;;;;;;;13.40;63.75;99462.67;1374105;84;21059;-72
2022/07/19 01:40:19;;;;;;;8.78;4.33;;;;;;;13.40;63.90;99461.35;1375986;84;67331;-70
2022/07/19 01:42:22;;;;;;;7.33;4.15;;;;;;;13.39;63.80;99464.08;1376265;83;21069;-72
2022/07/19 01:44:23;;;;;;;6.58;4.30;;;;;;;13.36;63.81;99458.47;1375241;84;21067;-71
2022/07/19 01:46:24;;;;;;;10.28;4.47;;;;;;;13.34;63.80;99458.97;1370716;83;81401;-71
2022/07/19 01:48:26;;;;;;;6.67;4.08;;;;;;;13.31;63.86;99457.81;1363254;85;21108;-71
2022/07/19 01:50:27;;;;;;;13.15;4.20;;;;;;;13.31;63.96;99456.97;1373197;84;81312;-71
2022/07/19 01:52:28;;;;;;;7.17;4.40;;;;;;;13.32;63.98;99453.36;1373062;84;21452;-71
2022/07/19 01:54:29;;;;;;;;;;;;;;;13.34;64.06;99449.70;1375048;84;21031;-70
2022/07/19 01:56:30;;;;;;;8.75;4.65;;;;;;;13.34;64.30;99452.35;1368845;84;68088;-71
2022/07/19 01:58:31;;;;;;;16.25;4.83;;;;;;;13.33;64.23;99451.95;1373736;83;21470;-71
2022/07/19 02:00:33;;;;;;;6.28;4.40;;;;;;;13.36;64.21;99449.66;1376004;84;81701;-71
2022/07/19 02:02:35;;;;;;;7.05;4.35;;;;;;;13.39;64.26;99454.81;1373423;84;21038;-72
2022/07/19 02:04:36;;;;;;;7.22;3.95;;;;;;;13.41;64.35;99452.92;1372745;84;21087;-71
2022/07/19 02:06:37;;;;;;;;;;;;;;;13.42;64.33;99454.16;1374967;83;80755;-70
2022/07/19 02:08:40;;;;;;;8.10;4.50;;;;;;;13.45;64.59;99457.12;1376100;84;20193;-71
2022/07/19 02:10:41;;;;;;;18.95;4.80;;;;;;;13.49;64.48;99449.89;1386735;82;80632;-71
2022/07/19 02:12:42;;;;;;;12.55;4.53;;;;;;;13.53;64.54;99454.94;1394189;82;21092;-71
2022/07/19 02:14:43;;;;;;;;;;;;;;;13.55;64.48;99449.55;1396353;83;20985;-72
2022/07/19 02:16:44;;;;;;;9.65;4.50;;;;;;;13.55;64.74;99447.74;1391688;83;67707;-71
2022/07/19 02:18:45;;;;;;;14.03;4.00;;;;;;;13.56;64.66;99447.30;1381121;83;21090;-71
2022/07/19 02:20:46;;;;;;;;;;;;;;;13.57;64.70;99446.37;1389598;83;81839;-71
2022/07/19 02:22:47;;;;;;;5.17;4.45;;;;;;;13.59;64.93;99449.30;1395095;82;20273;-71
2022/07/19 02:24:48;;;;;;;;;;;;;;;13.60;64.75;99444.39;1392627;83;21651;-71
2022/07/19 02:26:49;;;;;;;15.70;4.60;;;;;;;13.65;65.03;99449.44;1391374;83;67246;-71
2022/07/19 02:28:50;;;;;;;5.08;4.30;;;;;;;13.69;64.93;99456.77;1375033;84;21060;-71
2022/07/19 02:30:51;;;;;;;9.00;4.10;;;;;;;13.72;64.92;99456.59;1391705;83;80874;-71
2022/07/19 02:32:52;;;;;;;9.50;3.98;;;;;;;13.74;64.85;99456.90;1371515;84;21941;-71
2022/07/19 02:34:53;;;;;;;4.95;4.15;;;;;;;13.76;64.84;99454.16;1374281;83;21106;-71
2022/07/19 02:36:54;;;;;;;10.23;3.83;;;;;;;13.76;64.89;99459.02;1392230;83;80588;-71
2022/07/19 02:38:55;;;;;;;10.35;4.37;;;;;;;13.74;64.86;99462.20;1388479;83;21067;-71
2022/07/19 02:40:56;;;;;;;6.05;3.87;;;;;;;13.72;64.93;99460.11;1391917;83;81028;-71
2022/07/19 02:42:57;;;;;;;17.40;4.62;;;;;;;13.69;64.93;99454.95;1374135;84;21052;-71
2022/07/19 02:44:58;;;;;;;;;;;;;;;13.69;64.93;99454.95;1390480;82;81118;-71
2022/07/19 02:46:59;;;;;;;12.80;4.28;;;;;;;13.75;65.31;99463.07;1391236;83;20240;-71
2022/07/19 02:49:00;;;;;;;;;;;;;;;13.75;65.15;99470.54;1395767;82;21037;-71
2022/07/19 02:51:01;;;;;;;6.75;4.28;;;;;;;13.76;65.34;99461.66;1388396;83;68043;-72
2022/07/19 02:53:02;;;;;;;4.22;3.60;;;;;;;13.74;65.26;99460.87;1369997;84;21083;-71
2022/07/19 02:55:05;;;;;;;17.17;4.08;;;;;;;13.73;65.29;99460.48;1387299;82;81886;-70
2022/07/19 02:57:06;;;;;;;9.03;4.00;;;;;;;13.73;65.33;99462.28;1370571;83;21054;-72
2022/07/19 02:59:07;;;;;;;;;;;;;;;13.73;65.47;99463.61;1373564;84;21034;-71
2022/07/19 03:01:08;;;;;;;10.03;4.35;;;;;;;13.74;65.66;99459.55;1374349;84;67637;-71
2022/07/19 03:05:29;;;;;;;12.13;4.95;;;;;;;13.77;65.72;99463.35;1388345;83;81560;-71
2022/07/19 03:07:30;;;;;;;13.48;5.25;;;;;;;13.79;65.72;99465.47;1393785;83;21092;-71
2022/07/19 03:09:32;;;;;;;16.62;4.65;;;;;;;13.83;65.65;99464.84;1372369;84;21070;-71
2022/07/19 03:11:33;;;;;;;15.38;5.12;;;;;;;13.85;65.60;99457.66;1379203;83;81018;-72
2022/07/19 03:13:33;;;;;;;;;;;;;;;13.86;65.65;99467.32;1384671;82;21649;-71
2022/07/19 03:15:38;;;;;;;36.33;5.58;;;;;;;13.90;65.90;99461.37;1379698;84;67160;-71
2022/07/19 03:17:39;;;;;;;24.75;6.28;;;;;;;13.90;65.81;99461.37;1382067;84;21036;-71
2022/07/19 03:19:40;;;;;;;17.90;5.33;;;;;;;13.92;65.73;99463.00;1383249;84;21037;-70
2022/07/19 03:21:40;;;;;;;;;;;;;;;13.93;65.85;99465.20;1383112;84;81036;-71
2022/07/19 03:23:42;;;;;;;14.30;5.22;;;;;;;13.95;65.97;99462.83;1380034;84;20146;-71
2022/07/19 03:25:42;;;;;;;;;;;;;;;13.96;65.85;99463.22;1383199;83;80943;-71
2022/07/19 03:27:44;;;;;;;8.33;5.00;;;;;;;13.99;65.90;99461.36;1379348;84;30098;-72
2022/07/19 03:29:45;;;;;;;;;;;;;;;14.00;65.84;99470.55;1365074;85;21535;-71
2022/07/19 03:31:46;;;;;;;7.92;5.25;;;;;;;14.01;65.97;99465.64;1380935;84;68295;-72
2022/07/19 03:33:47;;;;;;;12.33;5.03;;;;;;;14.03;65.92;99463.75;1381885;84;21028;-71
2022/07/19 03:35:50;;;;;;;;;;;;;;;13.87;65.96;99433.72;1380712;84;81093;-72
2022/07/19 03:37:51;;;;;;;10.72;5.22;;;;;;;14.08;66.14;99477.61;1383997;84;20161;-70
2022/07/19 03:39:52;;;;;;;15.05;5.37;;;;;;;14.11;66.07;99474.78;1367156;85;21081;-72
2022/07/19 03:41:53;;;;;;;;;;;;;;;14.16;66.17;99481.63;1379829;85;81834;-70
2022/07/19 03:43:54;;;;;;;9.50;5.12;;;;;;;14.19;66.29;99475.70;1383167;84;20608;-71
2022/07/19 03:45:55;;;;;;;;;;;;;;;14.21;66.14;99480.44;1382646;83;81794;-70
2022/07/19 03:47:56;;;;;;;29.35;4.87;;;;;;;14.24;66.25;99478.09;1383618;84;20179;-72
2022/07/19 03:49:58;;;;;;;13.65;5.03;;;;;;;14.26;66.14;99470.89;1361957;84;81124;-71
2022/07/19 03:51:59;;;;;;;20.20;5.10;;;;;;;14.29;66.00;99474.72;1382202;83;21071;-71
2022/07/19 03:53:59;;;;;;;;;;;;;;;14.32;66.05;99475.87;1386904;84;21028;-71
2022/07/19 03:56:01;;;;;;;37.55;5.12;;;;;;;14.37;66.20;99475.15;1374734;85;67489;-71
2022/07/19 03:58:02;;;;;;;16.62;5.20;;;;;;;14.39;66.17;99474.58;1385486;83;21188;-71
2022/07/19 04:00:04;;;;;;;15.55;4.62;;;;;;;14.43;66.14;99477.44;1379980;84;81161;-70
2022/07/19 04:02:05;;;;;;;18.90;5.00;;;;;;;14.46;66.04;99470.63;1384553;84;21551;-71
2022/07/19 04:04:07;;;;;;;13.13;4.78;;;;;;;14.53;66.00;99468.98;1365180;85;21016;-71
2022/07/19 04:06:10;;;;;;;26.55;5.92;;;;;;;14.56;66.01;99472.77;1378310;84;82201;-71
2022/07/19 04:08:12;;;;;;;18.90;6.00;;;;;;;14.59;66.00;99477.89;1384130;84;21077;-71
2022/07/19 04:10:13;;;;;;;20.80;6.65;;;;;;;14.62;66.01;99479.95;1374224;83;80954;-72
2022/07/19 04:12:14;;;;;;;21.30;5.97;;;;;;;14.67;66.01;99482.81;1378437;84;21033;-71
2022/07/19 04:14:15;;;;;;;;;;;;;;;14.70;66.02;99482.14;1379050;83;21048;-70
2022/07/19 04:16:16;;;;;;;17.02;5.47;;;;;;;14.71;66.18;99482.54;1375946;84;67962;-73
2022/07/19 04:18:17;;;;;;;14.05;5.62;;;;;;;14.75;66.13;99481.42;1377212;84;21093;-70
2022/07/19 04:20:18;;;;;;;7.55;4.78;;;;;;;14.78;66.15;99483.89;1334613;86;81323;-71
2022/07/19 04:22:19;;;;;;;;;;;;;;;14.83;66.14;99484.09;1379019;84;21576;-71
2022/07/19 04:24:20;;;;;;;19.30;5.87;;;;;;;14.86;66.29;99486.60;1375910;84;20131;-72
2022/07/19 04:26:20;;;;;;;;;;;;;;;14.89;66.25;99485.09;1379000;83;81779;-71
2022/07/19 04:28:21;;;;;;;38.20;6.95;;;;;;;14.94;66.31;99488.34;1377377;83;20473;-71
2022/07/19 04:30:24;;;;;;;;;;;;;;;14.96;66.23;99489.94;1361285;85;81632;-70
2022/07/19 04:32:25;;;;;;;19.55;5.78;;;;;;;15.01;66.30;99497.66;1376385;83;20191;-71
2022/07/19 04:34:26;;;;;;;24.45;5.92;;;;;;;15.03;66.15;99498.40;1376922;83;21021;-71
2022/07/19 04:36:27;;;;;;;24.57;5.97;;;;;;;15.07;66.09;99503.91;1373437;84;81629;-71
2022/07/19 04:38:28;;;;;;;22.27;6.30;;;;;;;15.10;66.08;99497.09;1373432;83;21048;-71
2022/07/19 04:40:29;;;;;;;;;;;;;;;15.18;66.02;99493.16;1375338;84;81094;-71
2022/07/19 04:42:30;;;;;;;25.30;6.65;;;;;;;15.25;66.15;99501.13;1374713;84;20295;-71
2022/07/19 04:44:31;;;;;;;;;;;;;;;15.33;66.05;99499.72;1379179;84;21005;-71
2022/07/19 04:46:32;;;;;;;17.48;6.33;;;;;;;15.42;66.02;99495.66;1376379;83;67293;-70
2022/07/19 04:48:33;;;;;;;12.30;6.25;;;;;;;15.52;65.87;99493.78;1376037;83;21686;-70
2022/07/19 04:50:34;;;;;;;;;;;;;;;15.60;65.80;99495.50;1375420;83;80919;-71
2022/07/19 04:52:35;;;;;;;19.85;5.92;;;;;;;15.69;65.79;99491.41;1377649;84;20155;-71
2022/07/19 04:54:36;;;;;;;;;;;;;;;15.76;65.62;99489.63;1382703;84;20993;-70
2022/07/19 04:56:37;;;;;;;11.22;5.10;;;;;;;15.87;65.55;99503.63;1373500;84;67263;-70
2022/07/19 04:58:37;;;;;;;;;;;;;;;15.95;65.45;99503.13;1379434;83;21061;-71
2022/07/19 05:00:39;;;;;;;27.50;5.80;;;;;;;16.01;65.45;99506.76;1378782;84;68121;-71
2022/07/19 05:02:40;;;;;;;;;;;;;;;16.05;65.37;99498.97;1382397;83;21057;-71
2022/07/19 05:04:42;;;;;;;15.93;5.65;;;;;;;16.10;65.32;99496.88;1379480;83;20146;-71
2022/07/19 05:06:44;;;;;;;14.05;5.53;;;;;;;16.15;65.23;99495.25;1374784;84;82167;-72
2022/07/19 05:08:45;;;;;;;18.45;5.53;;;;;;;16.19;65.19;99489.28;1380062;84;21201;-69
2022/07/19 05:10:46;;;;;;;;;;;;;;;16.23;65.24;99488.13;1377279;83;81605;-70
2022/07/19 05:12:47;;;;;;;22.62;5.95;;;;;;;16.25;65.27;99484.88;1377358;83;20129;-70
2022/07/19 05:14:48;;;;;;;;;;;;;;;16.26;65.16;99482.61;1380586;84;21225;-70
2022/07/19 05:16:49;;;;;;;29.02;5.42;;;;;;;16.29;65.14;99483.73;1375142;83;67801;-71
2022/07/19 05:18:50;;;;;;;17.82;5.90;;;;;;;16.29;65.14;99483.25;1362804;85;22958;-70
2022/07/19 05:20:52;;;;;;;19.62;5.55;;;;;;;16.36;65.12;99490.37;1360286;85;81984;-71
2022/07/19 05:22:53;;;;;;;;;;;;;;;16.38;65.09;99494.26;1363827;85;21088;-70
2022/07/19 05:24:59;;;;;;;25.88;5.92;;;;;;;16.41;65.14;99484.28;1380003;84;20537;-70
2022/07/19 05:27:00;;;;;;;13.95;6.15;;;;;;;16.44;65.15;99477.43;1374680;83;21046;-71
2022/07/19 05:29:04;;;;;;;17.98;5.30;;;;;;;16.51;65.10;99480.06;1361771;85;21150;-70
2022/07/19 05:31:05;;;;;;;18.85;5.28;;;;;;;16.60;65.09;99481.75;1377116;84;80869;-70
2022/07/19 05:33:07;;;;;;;14.60;5.80;;;;;;;16.67;65.17;99479.09;1360797;85;21044;-71
2022/07/19 05:35:08;;;;;;;18.15;6.97;;;;;;;16.74;64.96;99481.72;1356588;85;82003;-70
2022/07/19 05:37:09;;;;;;;28.00;5.87;;;;;;;16.82;64.90;99480.73;1359507;84;21205;-70
2022/07/19 05:39:10;;;;;;;26.00;6.33;;;;;;;16.91;64.88;99481.96;1377833;84;21069;-71
2022/07/19 05:41:12;;;;;;;14.65;6.12;;;;;;;16.98;64.82;99483.74;1374936;83;81650;-71
2022/07/19 05:43:13;;;;;;;37.78;6.40;;;;;;;17.04;64.81;99484.65;1377998;82;21061;-70
2022/07/19 05:45:14;;;;;;;25.95;6.12;;;;;;;17.11;64.80;99484.64;1374444;84;80957;-69
2022/07/19 05:47:15;;;;;;;28.27;6.35;;;;;;;17.18;64.71;99481.05;1374742;82;21053;-69
2022/07/19 05:49:18;;;;;;;28.35;5.42;;;;;;;17.25;64.70;99485.49;1376356;83;21057;-70
2022/07/19 05:51:19;;;;;;;30.12;6.33;;;;;;;17.33;64.59;99480.50;1375521;84;81757;-70
2022/07/19 05:53:21;;;;;;;27.77;5.50;;;;;;;17.39;64.63;99480.09;1375318;82;21080;-70
2022/07/19 05:55:22;;;;;;;17.80;5.40;;;;;;;17.46;64.56;99476.05;1374966;83;81859;-70
2022/07/19 05:57:22;;;;;;;;;;;;;;;17.56;64.52;99479.41;1379580;84;21041;-70
2022/07/19 05:59:23;;;;;;;25.20;4.90;;;;;;;17.66;64.48;99477.80;1359075;85;20215;-70
2022/07/19 06:01:25;;;;;;;;;;;;;;;17.74;64.31;99479.45;1378981;83;81615;-70
2022/07/19 06:03:26;;;;;;;11.40;4.80;;;;;;;17.84;64.33;99483.66;1366344;85;20117;-70
2022/07/19 06:05:27;;;;;;;26.90;4.87;;;;;;;17.91;64.25;99479.62;1374609;84;80995;-71
2022/07/19 06:07:28;;;;;;;24.85;6.62;;;;;;;18.01;64.10;99475.83;1377694;84;21021;-70
2022/07/19 06:09:29;;;;;;;12.35;4.65;;;;;;;18.11;63.99;99473.34;1380712;84;21032;-70
2022/07/19 06:11:31;;;;;;;17.77;5.05;;;;;;;18.20;63.94;99468.20;1376910;84;81545;-70
2022/07/19 06:13:32;;;;;;;21.00;5.70;;;;;;;18.29;63.76;99470.71;1377314;83;21128;-69
2022/07/19 06:15:34;;;;;;;16.73;5.65;;;;;;;18.38;63.53;99469.18;1372335;84;82129;-70
2022/07/19 06:17:35;;;;;;;18.20;5.80;;;;;;;18.46;63.60;99464.14;1377108;83;20986;-71
2022/07/19 06:19:36;;;;;;;14.78;4.17;;;;;;;18.54;63.59;99467.09;1378506;83;21627;-70
2022/07/19 06:21:37;;;;;;;11.12;5.15;;;;;;;18.65;63.24;99458.30;1377422;84;81673;-71
2022/07/19 06:23:39;;;;;;;19.30;4.62;;;;;;;18.74;63.09;99459.42;1376896;83;21085;-70
2022/07/19 06:25:40;;;;;;;9.68;5.00;;;;;;;18.84;62.99;99455.11;1359128;85;81665;-71
2022/07/19 06:27:41;;;;;;;7.75;4.87;;;;;;;18.94;62.91;99461.11;1375350;84;21048;-71
2022/07/19 06:29:42;;;;;;;10.60;4.62;;;;;;;19.03;62.83;99456.42;1377496;84;22356;-69
2022/07/19 06:31:43;;;;;;;7.97;4.62;;;;;;;19.13;62.84;99462.75;1375261;84;81628;-70
2022/07/19 06:33:48;;;;;;;14.30;4.75;;;;;;;19.23;62.65;99461.56;1365175;85;21073;-70
2022/07/19 06:35:49;;;;;;;29.32;5.28;;;;;;;19.32;62.58;99463.54;1378837;84;81721;-70
2022/07/19 06:37:50;;;;;;;14.20;5.97;;;;;;;19.39;62.67;99457.24;1378133;84;21030;-71
2022/07/19 06:39:55;;;;;;;19.17;5.78;;;;;;;19.50;62.50;99459.92;1379464;84;21072;-71
2022/07/19 06:41:56;;;;;;;16.57;5.28;;;;;;;19.61;62.53;99456.42;1347386;85;81712;-69
2022/07/19 06:43:57;;;;;;;16.75;6.08;;;;;;;19.71;62.47;99461.90;1358066;84;21037;-71
2022/07/19 06:45:58;;;;;;;19.77;6.03;;;;;;;19.79;62.34;99456.80;1376334;84;81845;-70
2022/07/19 06:47:59;;;;;;;12.68;5.95;;;;;;;19.87;62.35;99457.58;1376718;84;21042;-71
2022/07/19 06:50:00;;;;;;;13.58;5.53;;;;;;;19.99;62.30;99461.08;1375834;82;82270;-71
2022/07/19 06:52:01;;;;;;;26.07;5.87;;;;;;;20.06;62.08;99460.48;1378167;84;21049;-69
2022/07/19 06:54:02;;;;;;;19.62;6.35;;;;;;;20.18;62.03;99463.98;1369012;85;21832;-71
2022/07/19 06:56:05;;;;;;;32.67;6.20;;;;;;;20.28;61.97;99461.91;1360834;84;83382;-71
2022/07/19 06:58:09;;;;;;;21.62;5.60;;;;;;;20.37;61.88;99458.49;1357965;85;21062;-72
2022/07/19 07:00:13;;;;;;;10.15;5.08;;;;;;;20.48;61.73;99463.81;1360224;84;81071;-70
2022/07/19 07:02:14;;;;;;;16.42;4.90;;;;;;;20.59;61.50;99460.27;1339459;85;21072;-71
2022/07/19 07:04:15;;;;;;;5.47;4.08;;;;;;;20.72;61.42;99461.47;1379019;83;21061;-71
2022/07/19 07:06:16;;;;;;;13.62;4.97;;;;;;;20.86;61.22;99458.97;1376815;84;81385;-70
2022/07/19 07:08:17;;;;;;;14.40;4.75;;;;;;;21.00;61.06;99452.45;1378769;84;21013;-70
2022/07/19 07:10:18;;;;;;;11.90;4.50;;;;;;;21.14;60.97;99452.13;1374509;83;81067;-70
2022/07/19 07:12:19;;;;;;;17.82;4.83;;;;;;;21.27;60.70;99453.30;1376935;84;21014;-71
2022/07/19 07:14:20;;;;;;;15.05;4.35;;;;;;;21.39;60.67;99456.74;1363229;84;21088;-70
2022/07/19 07:16:21;;;;;;;13.00;4.08;;;;;;;21.55;60.46;99459.84;1376874;84;81784;-71
2022/07/19 07:18:22;;;;;;;7.58;4.30;;;;;;;21.71;60.12;99454.48;1379107;84;21037;-71
2022/07/19 07:20:23;;;;;;;10.45;4.47;;;;;;;21.86;60.16;99454.50;1360205;85;80803;-71
2022/07/19 07:22:25;;;;;;;19.07;4.85;;;;;;;21.98;60.15;99445.01;1364486;85;21032;-70
2022/07/19 07:24:26;;;;;;;7.22;4.53;;;;;;;22.10;59.97;99449.29;1361646;85;21061;-71
2022/07/19 07:26:27;;;;;;;27.22;5.30;;;;;;;22.17;59.93;99447.75;1372603;84;82180;-71
2022/07/19 07:28:29;;;;;;;17.40;4.60;;;;;;;22.24;59.91;99452.92;1379270;84;21085;-71
2022/07/19 07:30:29;;;;;;;14.75;4.83;;;;;;;22.32;59.81;99452.72;1374645;84;81900;-72
2022/07/19 07:32:31;;;;;;;29.80;4.65;;;;;;;22.40;59.78;99452.44;1375580;82;21072;-71
2022/07/19 07:34:32;;;;;;;17.10;4.78;;;;;;;22.49;59.73;99460.66;1378174;84;21170;-71
2022/07/19 07:36:33;;;;;;;11.18;4.12;;;;;;;22.54;59.71;99457.03;1377168;84;82513;-71
2022/07/19 07:38:34;;;;;;;11.75;4.42;;;;;;;22.59;59.50;99464.19;1379596;84;21028;-72
2022/07/19 07:40:35;;;;;;;9.50;5.17;;;;;;;22.65;59.46;99464.12;1378590;83;82269;-71
2022/07/19 07:42:36;;;;;;;18.98;4.65;;;;;;;22.67;59.25;99452.25;1375317;84;20986;-71
2022/07/19 07:44:37;;;;;;;8.75;4.37;;;;;;;22.72;59.26;99458.07;1375880;84;21017;-71
2022/07/19 07:46:38;;;;;;;9.75;4.20;;;;;;;22.81;59.27;99454.19;1376592;84;81821;-71
2022/07/19 07:48:39;;;;;;;25.35;4.70;;;;;;;22.91;59.12;99454.52;1355944;85;22293;-71
2022/07/19 07:50:40;;;;;;;12.10;4.67;;;;;;;23.02;58.95;99452.69;1375974;83;81802;-71
2022/07/19 07:52:41;;;;;;;10.18;4.35;;;;;;;23.07;58.73;99454.47;1369638;84;21574;-71
2022/07/19 07:54:42;;;;;;;25.88;4.90;;;;;;;23.12;58.66;99460.27;1377442;84;21117;-70
2022/07/19 07:56:43;;;;;;;13.68;4.30;;;;;;;23.17;58.52;99456.66;1379129;84;82270;-72
2022/07/19 07:58:44;;;;;;;10.82;4.55;;;;;;;23.22;58.40;99462.47;1377409;84;21212;-72
2022/07/19 08:00:45;;;;;;;13.70;4.40;;;;;;;23.26;58.37;99462.53;1358594;85;81793;-72
2022/07/19 08:02:49;;;;;;;19.55;4.60;;;;;;;23.32;58.19;99463.80;1379230;84;21021;-74
2022/07/19 08:04:50;;;;;;;18.30;4.97;;;;;;;23.33;58.17;99459.26;1377910;84;21095;-73
2022/07/19 08:06:51;;;;;;;17.98;5.12;;;;;;;23.37;58.10;99462.02;1372325;84;80763;-72
2022/07/19 08:08:52;;;;;;;11.80;4.40;;;;;;;23.44;58.01;99461.78;1378574;84;21041;-71
2022/07/19 08:10:56;;;;;;;13.62;4.40;;;;;;;23.45;57.66;99456.28;1364952;84;81475;-72
2022/07/19 08:12:57;;;;;;;8.38;4.40;;;;;;;23.49;57.66;99457.33;1374932;84;21021;-71
2022/07/19 08:14:58;;;;;;;21.33;4.60;;;;;;;23.52;57.67;99451.14;1373941;84;21053;-71
2022/07/19 08:16:59;;;;;;;12.75;4.42;;;;;;;23.57;57.42;99447.52;1376953;84;81571;-73
2022/07/19 08:19:00;;;;;;;17.77;4.58;;;;;;;23.61;57.21;99450.27;1375061;84;21037;-73
2022/07/19 08:21:01;;;;;;;11.90;4.50;;;;;;;23.66;57.11;99446.30;1374665;84;80854;-73
2022/07/19 08:23:04;;;;;;;15.13;4.50;;;;;;;23.71;56.95;99447.55;1378865;83;21008;-72
2022/07/19 08:25:05;;;;;;;16.73;4.65;;;;;;;23.80;56.76;99445.33;1373637;84;82266;-72
2022/07/19 08:27:07;;;;;;;13.40;4.40;;;;;;;23.91;56.75;99441.64;1352551;85;21102;-72
2022/07/19 08:29:08;;;;;;;6.92;3.83;;;;;;;24.08;56.56;99441.84;1378058;84;21035;-72
2022/07/19 08:31:09;;;;;;;17.60;4.15;;;;;;;24.24;56.38;99433.09;1370484;84;81318;-71
2022/07/19 08:33:10;;;;;;;17.17;4.70;;;;;;;24.36;56.18;99437.78;1376175;84;21030;-74
2022/07/19 08:35:11;;;;;;;18.92;3.60;;;;;;;24.42;55.98;99438.52;1373815;84;82295;-72
2022/07/19 08:37:12;;;;;;;27.32;4.25;;;;;;;24.50;55.94;99438.60;1377705;84;21034;-72
2022/07/19 08:39:13;;;;;;;11.05;3.80;;;;;;;24.58;55.84;99438.69;1374738;84;21024;-74
2022/07/19 08:41:15;;;;;;;12.37;3.80;;;;;;;24.65;55.60;99439.80;1374773;84;80993;-72
2022/07/19 08:43:18;;;;;;;16.15;3.72;;;;;;;24.74;55.53;99442.09;1375912;84;21058;-72
2022/07/19 08:45:22;;;;;;;12.20;3.52;;;;;;;24.87;55.24;99437.65;1374727;84;81048;-72
2022/07/19 08:47:24;;;;;;;12.23;3.85;;;;;;;24.98;55.29;99442.80;1380204;84;21010;-73
2022/07/19 08:49:26;;;;;;;8.65;3.27;;;;;;;25.13;55.23;99440.39;1376852;84;21011;-72
2022/07/19 08:51:27;;;;;;;9.13;3.30;;;;;;;25.26;54.76;99444.53;1378811;84;81492;-72
2022/07/19 08:53:33;;;;;;;9.10;3.52;;;;;;;25.38;54.41;99449.19;1376336;84;21573;-73
2022/07/19 08:55:34;;;;;;;9.55;3.50;;;;;;;25.49;54.26;99447.60;1372890;83;81460;-72
2022/07/19 08:59:55;;;;;;;8.78;3.35;;;;;;;25.72;54.01;99438.95;1374905;84;21076;-73
2022/07/19 09:01:57;;;;;;;11.65;2.92;;;;;;;25.93;53.86;99435.84;1373483;84;81045;-73
2022/07/19 09:04:10;;;;;;;19.55;3.33;;;;;;;26.08;53.93;99430.70;1376665;84;21658;-72
2022/07/19 09:06:11;;;;;;;14.78;3.67;;;;;;;26.32;53.99;99428.09;1374772;84;81884;-72
2022/07/19 09:08:15;;;;;;;9.55;2.90;;;;;;;26.57;53.28;99432.20;1380859;84;21017;-74
2022/07/19 09:10:23;;;;;;;12.50;3.12;;;;;;;26.67;53.07;99426.12;1373757;84;80939;-73
2022/07/19 09:12:24;;;;;;;14.58;3.22;;;;;;;26.81;52.74;99428.70;1378086;84;21103;-73
2022/07/19 09:14:28;;;;;;;7.75;2.15;;;;;;;26.84;52.55;99422.11;1376967;84;21547;-72
2022/07/19 09:16:49;;;;;;;8.00;2.47;;;;;;;26.86;52.18;99424.13;1373192;84;81557;-72
2022/07/19 09:18:57;;;;;;;4.60;2.25;;;;;;;26.85;52.08;99423.81;1374219;84;20998;-75
2022/07/19 09:21:04;;;;;;;11.78;2.15;;;;;;;26.84;51.78;99425.66;1367892;83;81589;-74
2022/07/19 09:23:06;;;;;;;12.73;2.40;;;;;;;26.75;51.36;99425.81;1372160;84;21134;-72
2022/07/19 09:25:07;;;;;;;8.48;2.47;;;;;;;26.72;51.40;99419.40;1369334;84;81747;-72
2022/07/19 09:27:17;;;;;;;11.08;2.83;;;;;;;26.74;51.30;99420.09;1374239;84;21054;-73
2022/07/19 09:29:18;;;;;;;9.65;2.60;;;;;;;26.83;51.65;99419.06;1371199;83;21050;-72
2022/07/19 09:31:19;;;;;;;12.78;3.17;;;;;;;26.99;51.58;99421.77;1367779;84;80805;-73
2022/07/19 09:33:23;;;;;;;12.05;2.22;;;;;;;27.25;51.24;99428.87;1372120;84;21534;-75
2022/07/19 09:35:28;;;;;;;3.33;1.80;;;;;;;27.46;50.30;99424.81;1367104;84;81746;-73
2022/07/19 09:37:32;;;;;;;9.23;1.90;;;;;;;27.56;48.89;99424.63;1371944;83;21032;-73
2022/07/19 09:39:33;;;;;;;9.30;1.90;;;;;;;27.51;48.37;99417.86;1369292;84;21545;-73
2022/07/19 09:41:34;;;;;;;14.50;2.17;;;;;;;27.50;48.27;99418.88;1372516;84;81620;-73